sensor_id;sensor_type;location;lat;lon;timestamp;P1;durP1;ratioP1;P2;durP2;ratioP2
13743;SDS011;6943;52.368;9.966;2023-04-08T00:01:51;8.13;;;6.50;;
13743;SDS011;6943;52.368;9.966;2023-04-08T00:04:18;7.50;;;5.97;;
13743;SDS011;6943;52.368;9.966;2023-04-08T00:06:43;6.93;;;5.77;;
13743;SDS011;6943;52.368;9.966;2023-04-08T00:09:09;7.07;;;5.73;;
13743;SDS011;6943;52.368;9.966;2023-04-08T00:11:34;7.20;;;5.83;;
13743;SDS011;6943;52.368;9.966;2023-04-08T00:14:01;8.33;;;5.93;;
13743;SDS011;6943;52.368;9.966;2023-04-08T00:16:28;7.87;;;5.60;;
13743;SDS011;6943;52.368;9.966;2023-04-08T00:18:53;8.20;;;6.67;;
13743;SDS011;6943;52.368;9.966;2023-04-08T00:21:19;8.13;;;6.70;;
13743;SDS011;6943;52.368;9.966;2023-04-08T00:23:45;7.63;;;6.17;;
13743;SDS011;6943;52.368;9.966;2023-04-08T00:26:11;6.40;;;5.73;;
13743;SDS011;6943;52.368;9.966;2023-04-08T00:28:37;7.60;;;6.23;;
13743;SDS011;6943;52.368;9.966;2023-04-08T00:31:02;8.10;;;6.83;;
13743;SDS011;6943;52.368;9.966;2023-04-08T00:33:28;9.00;;;6.47;;
13743;SDS011;6943;52.368;9.966;2023-04-08T00:35:53;10.07;;;6.30;;
13743;SDS011;6943;52.368;9.966;2023-04-08T00:38:19;7.47;;;6.17;;
13743;SDS011;6943;52.368;9.966;2023-04-08T00:40:44;8.30;;;6.60;;
13743;SDS011;6943;52.368;9.966;2023-04-08T00:43:10;9.23;;;6.47;;
13743;SDS011;6943;52.368;9.966;2023-04-08T00:45:36;8.80;;;7.20;;
13743;SDS011;6943;52.368;9.966;2023-04-08T00:48:02;8.67;;;6.33;;
13743;SDS011;6943;52.368;9.966;2023-04-08T00:50:28;9.40;;;7.10;;
13743;SDS011;6943;52.368;9.966;2023-04-08T00:52:54;8.60;;;6.37;;
13743;SDS011;6943;52.368;9.966;2023-04-08T00:55:19;6.87;;;6.17;;
13743;SDS011;6943;52.368;9.966;2023-04-08T00:57:45;8.23;;;6.43;;
13743;SDS011;6943;52.368;9.966;2023-04-08T01:00:11;9.07;;;6.70;;
13743;SDS011;6943;52.368;9.966;2023-04-08T01:05:11;8.07;;;7.27;;
13743;SDS011;6943;52.368;9.966;2023-04-08T01:07:46;9.10;;;7.00;;
13743;SDS011;6943;52.368;9.966;2023-04-08T01:10:27;8.27;;;7.03;;
13743;SDS011;6943;52.368;9.966;2023-04-08T01:13:02;8.20;;;7.27;;
13743;SDS011;6943;52.368;9.966;2023-04-08T01:15:32;8.00;;;6.30;;
13743;SDS011;6943;52.368;9.966;2023-04-08T01:18:00;9.83;;;6.67;;
13743;SDS011;6943;52.368;9.966;2023-04-08T01:20:30;7.30;;;6.60;;
13743;SDS011;6943;52.368;9.966;2023-04-08T01:25:34;8.97;;;6.63;;
13743;SDS011;6943;52.368;9.966;2023-04-08T01:28:06;8.53;;;6.60;;
13743;SDS011;6943;52.368;9.966;2023-04-08T01:30:39;7.57;;;6.80;;
13743;SDS011;6943;52.368;9.966;2023-04-08T01:33:06;8.67;;;7.50;;
13743;SDS011;6943;52.368;9.966;2023-04-08T01:35:35;8.20;;;7.20;;
13743;SDS011;6943;52.368;9.966;2023-04-08T01:38:01;8.60;;;7.30;;
13743;SDS011;6943;52.368;9.966;2023-04-08T01:40:30;8.80;;;6.70;;
13743;SDS011;6943;52.368;9.966;2023-04-08T01:42:58;11.97;;;7.83;;
13743;SDS011;6943;52.368;9.966;2023-04-08T01:45:25;8.53;;;6.80;;
13743;SDS011;6943;52.368;9.966;2023-04-08T01:47:52;8.20;;;6.80;;
13743;SDS011;6943;52.368;9.966;2023-04-08T01:50:19;11.30;;;8.33;;
13743;SDS011;6943;52.368;9.966;2023-04-08T01:52:45;10.17;;;7.80;;
13743;SDS011;6943;52.368;9.966;2023-04-08T01:55:13;10.97;;;7.63;;
13743;SDS011;6943;52.368;9.966;2023-04-08T01:57:40;10.17;;;7.30;;
13743;SDS011;6943;52.368;9.966;2023-04-08T02:00:08;10.53;;;7.83;;
13743;SDS011;6943;52.368;9.966;2023-04-08T02:02:36;12.57;;;8.10;;
13743;SDS011;6943;52.368;9.966;2023-04-08T02:05:02;10.70;;;8.00;;
13743;SDS011;6943;52.368;9.966;2023-04-08T02:07:28;11.83;;;8.27;;
13743;SDS011;6943;52.368;9.966;2023-04-08T02:09:54;9.93;;;7.60;;
13743;SDS011;6943;52.368;9.966;2023-04-08T02:12:20;10.80;;;7.93;;
13743;SDS011;6943;52.368;9.966;2023-04-08T02:14:46;10.23;;;7.50;;
13743;SDS011;6943;52.368;9.966;2023-04-08T02:17:26;8.90;;;7.73;;
13743;SDS011;6943;52.368;9.966;2023-04-08T02:20:07;8.43;;;6.37;;
13743;SDS011;6943;52.368;9.966;2023-04-08T02:22:46;9.43;;;6.70;;
13743;SDS011;6943;52.368;9.966;2023-04-08T02:25:24;9.43;;;6.70;;
13743;SDS011;6943;52.368;9.966;2023-04-08T02:27:52;9.67;;;6.83;;
13743;SDS011;6943;52.368;9.966;2023-04-08T02:30:20;10.50;;;7.37;;
13743;SDS011;6943;52.368;9.966;2023-04-08T02:32:46;10.07;;;7.43;;
13743;SDS011;6943;52.368;9.966;2023-04-08T02:35:13;9.90;;;7.33;;
13743;SDS011;6943;52.368;9.966;2023-04-08T02:37:40;10.97;;;8.20;;
13743;SDS011;6943;52.368;9.966;2023-04-08T02:40:21;11.77;;;8.40;;
13743;SDS011;6943;52.368;9.966;2023-04-08T02:42:51;11.47;;;8.13;;
13743;SDS011;6943;52.368;9.966;2023-04-08T02:45:17;12.67;;;7.77;;
13743;SDS011;6943;52.368;9.966;2023-04-08T02:47:43;13.57;;;7.97;;
13743;SDS011;6943;52.368;9.966;2023-04-08T02:50:08;12.03;;;8.47;;
13743;SDS011;6943;52.368;9.966;2023-04-08T02:52:34;12.73;;;8.13;;
13743;SDS011;6943;52.368;9.966;2023-04-08T02:55:00;12.07;;;8.40;;
13743;SDS011;6943;52.368;9.966;2023-04-08T02:57:26;14.57;;;8.90;;
13743;SDS011;6943;52.368;9.966;2023-04-08T02:59:51;11.83;;;8.40;;
13743;SDS011;6943;52.368;9.966;2023-04-08T03:02:17;11.93;;;8.00;;
13743;SDS011;6943;52.368;9.966;2023-04-08T03:04:42;12.43;;;8.13;;
13743;SDS011;6943;52.368;9.966;2023-04-08T03:07:08;11.17;;;8.60;;
13743;SDS011;6943;52.368;9.966;2023-04-08T03:09:33;11.37;;;7.87;;
13743;SDS011;6943;52.368;9.966;2023-04-08T03:11:59;10.80;;;8.27;;
13743;SDS011;6943;52.368;9.966;2023-04-08T03:14:24;10.73;;;7.87;;
13743;SDS011;6943;52.368;9.966;2023-04-08T03:16:50;13.57;;;8.13;;
13743;SDS011;6943;52.368;9.966;2023-04-08T03:19:15;11.20;;;8.00;;
13743;SDS011;6943;52.368;9.966;2023-04-08T03:21:41;11.57;;;7.20;;
13743;SDS011;6943;52.368;9.966;2023-04-08T03:24:06;10.63;;;7.80;;
13743;SDS011;6943;52.368;9.966;2023-04-08T03:26:32;10.67;;;8.20;;
13743;SDS011;6943;52.368;9.966;2023-04-08T03:28:57;10.03;;;7.90;;
13743;SDS011;6943;52.368;9.966;2023-04-08T03:31:23;10.63;;;8.23;;
13743;SDS011;6943;52.368;9.966;2023-04-08T03:33:49;11.63;;;9.20;;
13743;SDS011;6943;52.368;9.966;2023-04-08T03:36:15;11.67;;;8.87;;
13743;SDS011;6943;52.368;9.966;2023-04-08T03:38:40;14.00;;;9.57;;
13743;SDS011;6943;52.368;9.966;2023-04-08T03:41:06;13.77;;;10.00;;
13743;SDS011;6943;52.368;9.966;2023-04-08T03:43:31;10.20;;;8.50;;
13743;SDS011;6943;52.368;9.966;2023-04-08T03:45:57;13.50;;;9.43;;
13743;SDS011;6943;52.368;9.966;2023-04-08T03:48:22;12.97;;;8.77;;
13743;SDS011;6943;52.368;9.966;2023-04-08T03:50:48;15.77;;;9.87;;
13743;SDS011;6943;52.368;9.966;2023-04-08T03:53:13;14.93;;;10.83;;
13743;SDS011;6943;52.368;9.966;2023-04-08T03:55:39;16.23;;;10.27;;
13743;SDS011;6943;52.368;9.966;2023-04-08T03:58:05;15.93;;;10.50;;
13743;SDS011;6943;52.368;9.966;2023-04-08T04:00:30;15.30;;;10.53;;
13743;SDS011;6943;52.368;9.966;2023-04-08T04:02:56;21.47;;;11.63;;
13743;SDS011;6943;52.368;9.966;2023-04-08T04:05:21;18.07;;;11.47;;
13743;SDS011;6943;52.368;9.966;2023-04-08T04:07:47;17.33;;;12.00;;
13743;SDS011;6943;52.368;9.966;2023-04-08T04:10:12;17.37;;;12.63;;
13743;SDS011;6943;52.368;9.966;2023-04-08T04:12:38;20.07;;;12.73;;
13743;SDS011;6943;52.368;9.966;2023-04-08T04:15:03;21.20;;;12.23;;
13743;SDS011;6943;52.368;9.966;2023-04-08T04:17:29;19.63;;;12.77;;
13743;SDS011;6943;52.368;9.966;2023-04-08T04:19:55;22.87;;;13.87;;
13743;SDS011;6943;52.368;9.966;2023-04-08T04:22:20;17.07;;;12.47;;
13743;SDS011;6943;52.368;9.966;2023-04-08T04:24:46;19.90;;;13.90;;
13743;SDS011;6943;52.368;9.966;2023-04-08T04:27:12;23.83;;;14.07;;
13743;SDS011;6943;52.368;9.966;2023-04-08T04:29:38;20.43;;;12.30;;
13743;SDS011;6943;52.368;9.966;2023-04-08T04:32:04;20.40;;;12.83;;
13743;SDS011;6943;52.368;9.966;2023-04-08T04:34:30;21.67;;;13.13;;
13743;SDS011;6943;52.368;9.966;2023-04-08T04:36:56;22.47;;;13.50;;
13743;SDS011;6943;52.368;9.966;2023-04-08T04:39:21;20.60;;;13.50;;
13743;SDS011;6943;52.368;9.966;2023-04-08T04:41:47;23.20;;;13.47;;
13743;SDS011;6943;52.368;9.966;2023-04-08T04:44:13;23.40;;;14.93;;
13743;SDS011;6943;52.368;9.966;2023-04-08T04:46:38;21.93;;;13.57;;
13743;SDS011;6943;52.368;9.966;2023-04-08T04:49:04;22.27;;;13.83;;
13743;SDS011;6943;52.368;9.966;2023-04-08T04:51:30;21.50;;;13.27;;
13743;SDS011;6943;52.368;9.966;2023-04-08T04:53:57;21.93;;;14.00;;
13743;SDS011;6943;52.368;9.966;2023-04-08T04:56:22;20.97;;;12.37;;
13743;SDS011;6943;52.368;9.966;2023-04-08T04:58:49;21.03;;;14.03;;
13743;SDS011;6943;52.368;9.966;2023-04-08T05:01:14;20.03;;;13.40;;
13743;SDS011;6943;52.368;9.966;2023-04-08T05:03:40;23.97;;;14.83;;
13743;SDS011;6943;52.368;9.966;2023-04-08T05:06:05;19.53;;;13.03;;
13743;SDS011;6943;52.368;9.966;2023-04-08T05:08:31;22.00;;;12.97;;
13743;SDS011;6943;52.368;9.966;2023-04-08T05:10:56;20.97;;;13.67;;
13743;SDS011;6943;52.368;9.966;2023-04-08T05:13:25;20.77;;;13.00;;
13743;SDS011;6943;52.368;9.966;2023-04-08T05:15:56;26.33;;;14.13;;
13743;SDS011;6943;52.368;9.966;2023-04-08T05:18:21;18.20;;;12.87;;
13743;SDS011;6943;52.368;9.966;2023-04-08T05:20:46;22.53;;;13.93;;
13743;SDS011;6943;52.368;9.966;2023-04-08T05:23:12;21.87;;;13.57;;
13743;SDS011;6943;52.368;9.966;2023-04-08T05:25:37;21.90;;;12.83;;
13743;SDS011;6943;52.368;9.966;2023-04-08T05:28:03;22.47;;;13.53;;
13743;SDS011;6943;52.368;9.966;2023-04-08T05:30:29;24.43;;;13.93;;
13743;SDS011;6943;52.368;9.966;2023-04-08T05:32:54;21.70;;;14.33;;
13743;SDS011;6943;52.368;9.966;2023-04-08T05:35:20;23.07;;;13.63;;
13743;SDS011;6943;52.368;9.966;2023-04-08T05:37:45;19.80;;;11.90;;
13743;SDS011;6943;52.368;9.966;2023-04-08T05:40:11;18.73;;;12.97;;
13743;SDS011;6943;52.368;9.966;2023-04-08T05:42:37;18.90;;;12.60;;
13743;SDS011;6943;52.368;9.966;2023-04-08T05:45:02;18.83;;;12.47;;
13743;SDS011;6943;52.368;9.966;2023-04-08T05:47:28;17.77;;;12.63;;
13743;SDS011;6943;52.368;9.966;2023-04-08T05:49:54;19.50;;;12.83;;
13743;SDS011;6943;52.368;9.966;2023-04-08T05:52:19;18.63;;;12.43;;
13743;SDS011;6943;52.368;9.966;2023-04-08T05:54:45;19.07;;;12.87;;
13743;SDS011;6943;52.368;9.966;2023-04-08T05:57:11;18.47;;;12.53;;
13743;SDS011;6943;52.368;9.966;2023-04-08T05:59:36;17.87;;;13.87;;
13743;SDS011;6943;52.368;9.966;2023-04-08T06:02:02;16.97;;;12.43;;
13743;SDS011;6943;52.368;9.966;2023-04-08T06:04:27;18.67;;;11.63;;
13743;SDS011;6943;52.368;9.966;2023-04-08T06:06:54;18.00;;;11.17;;
13743;SDS011;6943;52.368;9.966;2023-04-08T06:09:21;15.93;;;12.07;;
13743;SDS011;6943;52.368;9.966;2023-04-08T06:11:47;17.97;;;12.40;;
13743;SDS011;6943;52.368;9.966;2023-04-08T06:14:14;17.17;;;11.13;;
13743;SDS011;6943;52.368;9.966;2023-04-08T06:16:40;18.17;;;11.83;;
13743;SDS011;6943;52.368;9.966;2023-04-08T06:19:05;17.07;;;11.97;;
13743;SDS011;6943;52.368;9.966;2023-04-08T06:21:30;18.10;;;12.47;;
13743;SDS011;6943;52.368;9.966;2023-04-08T06:23:56;17.07;;;12.87;;
13743;SDS011;6943;52.368;9.966;2023-04-08T06:26:21;18.00;;;12.03;;
13743;SDS011;6943;52.368;9.966;2023-04-08T06:28:47;19.93;;;12.13;;
13743;SDS011;6943;52.368;9.966;2023-04-08T06:31:12;18.47;;;12.70;;
13743;SDS011;6943;52.368;9.966;2023-04-08T06:33:38;16.87;;;11.93;;
13743;SDS011;6943;52.368;9.966;2023-04-08T06:36:04;19.60;;;12.47;;
13743;SDS011;6943;52.368;9.966;2023-04-08T06:38:30;15.70;;;11.27;;
13743;SDS011;6943;52.368;9.966;2023-04-08T06:41:00;17.67;;;12.43;;
13743;SDS011;6943;52.368;9.966;2023-04-08T06:43:30;17.63;;;12.87;;
13743;SDS011;6943;52.368;9.966;2023-04-08T06:45:56;20.43;;;12.13;;
13743;SDS011;6943;52.368;9.966;2023-04-08T06:48:22;17.70;;;12.27;;
13743;SDS011;6943;52.368;9.966;2023-04-08T06:50:52;16.37;;;11.93;;
13743;SDS011;6943;52.368;9.966;2023-04-08T06:53:18;19.67;;;12.97;;
13743;SDS011;6943;52.368;9.966;2023-04-08T06:55:43;17.40;;;11.97;;
13743;SDS011;6943;52.368;9.966;2023-04-08T06:58:09;16.10;;;12.67;;
13743;SDS011;6943;52.368;9.966;2023-04-08T07:00:34;18.30;;;12.40;;
13743;SDS011;6943;52.368;9.966;2023-04-08T07:03:01;19.17;;;13.03;;
13743;SDS011;6943;52.368;9.966;2023-04-08T07:05:26;18.27;;;12.30;;
13743;SDS011;6943;52.368;9.966;2023-04-08T07:07:51;18.23;;;12.90;;
13743;SDS011;6943;52.368;9.966;2023-04-08T07:10:17;19.47;;;13.03;;
13743;SDS011;6943;52.368;9.966;2023-04-08T07:15:18;16.70;;;11.80;;
13743;SDS011;6943;52.368;9.966;2023-04-08T07:17:43;17.37;;;12.67;;
13743;SDS011;6943;52.368;9.966;2023-04-08T07:20:09;22.30;;;12.97;;
13743;SDS011;6943;52.368;9.966;2023-04-08T07:22:36;18.50;;;13.13;;
13743;SDS011;6943;52.368;9.966;2023-04-08T07:25:01;18.20;;;12.27;;
13743;SDS011;6943;52.368;9.966;2023-04-08T07:27:27;15.77;;;11.57;;
13743;SDS011;6943;52.368;9.966;2023-04-08T07:29:52;19.43;;;12.93;;
13743;SDS011;6943;52.368;9.966;2023-04-08T07:32:18;18.20;;;13.10;;
13743;SDS011;6943;52.368;9.966;2023-04-08T07:34:44;20.80;;;13.33;;
13743;SDS011;6943;52.368;9.966;2023-04-08T07:37:10;18.17;;;13.00;;
13743;SDS011;6943;52.368;9.966;2023-04-08T07:39:35;19.40;;;12.97;;
13743;SDS011;6943;52.368;9.966;2023-04-08T07:42:01;19.30;;;12.97;;
13743;SDS011;6943;52.368;9.966;2023-04-08T07:44:26;19.53;;;13.30;;
13743;SDS011;6943;52.368;9.966;2023-04-08T07:46:52;21.67;;;13.33;;
13743;SDS011;6943;52.368;9.966;2023-04-08T07:49:17;19.93;;;13.80;;
13743;SDS011;6943;52.368;9.966;2023-04-08T07:51:43;20.77;;;13.17;;
13743;SDS011;6943;52.368;9.966;2023-04-08T07:54:08;19.27;;;12.93;;
13743;SDS011;6943;52.368;9.966;2023-04-08T07:56:41;16.37;;;12.47;;
13743;SDS011;6943;52.368;9.966;2023-04-08T07:59:10;20.90;;;13.47;;
13743;SDS011;6943;52.368;9.966;2023-04-08T08:01:35;20.43;;;14.17;;
13743;SDS011;6943;52.368;9.966;2023-04-08T08:04:01;21.57;;;13.90;;
13743;SDS011;6943;52.368;9.966;2023-04-08T08:06:27;20.90;;;13.30;;
13743;SDS011;6943;52.368;9.966;2023-04-08T08:08:53;20.63;;;13.30;;
13743;SDS011;6943;52.368;9.966;2023-04-08T08:11:18;19.70;;;13.90;;
13743;SDS011;6943;52.368;9.966;2023-04-08T08:13:46;20.30;;;13.70;;
13743;SDS011;6943;52.368;9.966;2023-04-08T08:16:11;23.10;;;14.73;;
13743;SDS011;6943;52.368;9.966;2023-04-08T08:18:37;20.90;;;14.23;;
13743;SDS011;6943;52.368;9.966;2023-04-08T08:21:04;25.47;;;14.07;;
13743;SDS011;6943;52.368;9.966;2023-04-08T08:23:30;24.40;;;15.70;;
13743;SDS011;6943;52.368;9.966;2023-04-08T08:25:59;22.90;;;14.30;;
13743;SDS011;6943;52.368;9.966;2023-04-08T08:28:26;24.03;;;14.83;;
13743;SDS011;6943;52.368;9.966;2023-04-08T08:30:51;24.43;;;15.00;;
13743;SDS011;6943;52.368;9.966;2023-04-08T08:33:17;26.73;;;15.10;;
13743;SDS011;6943;52.368;9.966;2023-04-08T08:35:43;23.03;;;15.43;;
13743;SDS011;6943;52.368;9.966;2023-04-08T08:38:08;25.13;;;14.93;;
13743;SDS011;6943;52.368;9.966;2023-04-08T08:40:34;20.60;;;13.47;;
13743;SDS011;6943;52.368;9.966;2023-04-08T08:43:00;21.20;;;13.57;;
13743;SDS011;6943;52.368;9.966;2023-04-08T08:45:25;21.63;;;13.57;;
13743;SDS011;6943;52.368;9.966;2023-04-08T08:47:51;21.13;;;13.73;;
13743;SDS011;6943;52.368;9.966;2023-04-08T08:50:17;20.93;;;13.53;;
13743;SDS011;6943;52.368;9.966;2023-04-08T08:52:49;22.97;;;13.43;;
13743;SDS011;6943;52.368;9.966;2023-04-08T08:55:18;20.57;;;13.00;;
13743;SDS011;6943;52.368;9.966;2023-04-08T08:57:45;18.10;;;12.33;;
13743;SDS011;6943;52.368;9.966;2023-04-08T09:00:11;19.00;;;11.73;;
13743;SDS011;6943;52.368;9.966;2023-04-08T09:02:37;18.33;;;12.00;;
13743;SDS011;6943;52.368;9.966;2023-04-08T09:05:03;16.40;;;12.27;;
13743;SDS011;6943;52.368;9.966;2023-04-08T09:07:30;21.40;;;11.87;;
13743;SDS011;6943;52.368;9.966;2023-04-08T09:09:59;17.47;;;12.63;;
13743;SDS011;6943;52.368;9.966;2023-04-08T09:12:25;15.70;;;11.20;;
13743;SDS011;6943;52.368;9.966;2023-04-08T09:15:05;21.03;;;12.47;;
13743;SDS011;6943;52.368;9.966;2023-04-08T09:17:36;20.23;;;12.67;;
13743;SDS011;6943;52.368;9.966;2023-04-08T09:20:03;20.30;;;12.77;;
13743;SDS011;6943;52.368;9.966;2023-04-08T09:22:54;19.27;;;13.23;;
13743;SDS011;6943;52.368;9.966;2023-04-08T09:25:31;19.63;;;13.97;;
13743;SDS011;6943;52.368;9.966;2023-04-08T09:27:58;20.17;;;13.37;;
13743;SDS011;6943;52.368;9.966;2023-04-08T09:30:24;18.67;;;13.10;;
13743;SDS011;6943;52.368;9.966;2023-04-08T09:32:55;21.07;;;13.57;;
13743;SDS011;6943;52.368;9.966;2023-04-08T09:35:21;20.60;;;13.33;;
13743;SDS011;6943;52.368;9.966;2023-04-08T09:37:48;19.93;;;13.07;;
13743;SDS011;6943;52.368;9.966;2023-04-08T09:40:15;20.30;;;12.63;;
13743;SDS011;6943;52.368;9.966;2023-04-08T09:42:45;21.30;;;13.20;;
13743;SDS011;6943;52.368;9.966;2023-04-08T09:45:14;20.90;;;13.13;;
13743;SDS011;6943;52.368;9.966;2023-04-08T09:48:00;19.60;;;13.57;;
13743;SDS011;6943;52.368;9.966;2023-04-08T09:50:38;19.87;;;13.60;;
13743;SDS011;6943;52.368;9.966;2023-04-08T09:53:13;19.23;;;13.47;;
13743;SDS011;6943;52.368;9.966;2023-04-08T09:55:48;19.30;;;13.40;;
13743;SDS011;6943;52.368;9.966;2023-04-08T09:58:20;20.20;;;13.27;;
13743;SDS011;6943;52.368;9.966;2023-04-08T10:00:51;19.40;;;13.07;;
13743;SDS011;6943;52.368;9.966;2023-04-08T10:05:52;20.10;;;13.10;;
13743;SDS011;6943;52.368;9.966;2023-04-08T10:08:18;19.43;;;13.20;;
13743;SDS011;6943;52.368;9.966;2023-04-08T10:10:44;18.60;;;13.87;;
13743;SDS011;6943;52.368;9.966;2023-04-08T10:13:10;21.63;;;14.33;;
13743;SDS011;6943;52.368;9.966;2023-04-08T10:15:36;23.37;;;14.10;;
13743;SDS011;6943;52.368;9.966;2023-04-08T10:23:01;18.53;;;13.03;;
13743;SDS011;6943;52.368;9.966;2023-04-08T10:25:34;20.10;;;12.87;;
13743;SDS011;6943;52.368;9.966;2023-04-08T10:30:48;20.77;;;12.97;;
13743;SDS011;6943;52.368;9.966;2023-04-08T10:33:16;20.47;;;13.10;;
13743;SDS011;6943;52.368;9.966;2023-04-08T10:35:47;18.67;;;12.50;;
13743;SDS011;6943;52.368;9.966;2023-04-08T10:38:17;16.03;;;11.87;;
13743;SDS011;6943;52.368;9.966;2023-04-08T10:40:43;17.03;;;11.93;;
13743;SDS011;6943;52.368;9.966;2023-04-08T10:43:10;15.93;;;11.23;;
13743;SDS011;6943;52.368;9.966;2023-04-08T10:45:37;17.10;;;12.40;;
13743;SDS011;6943;52.368;9.966;2023-04-08T10:48:13;17.87;;;12.03;;
13743;SDS011;6943;52.368;9.966;2023-04-08T10:50:38;17.27;;;12.90;;
13743;SDS011;6943;52.368;9.966;2023-04-08T10:53:04;19.80;;;13.67;;
13743;SDS011;6943;52.368;9.966;2023-04-08T10:55:30;19.07;;;12.87;;
13743;SDS011;6943;52.368;9.966;2023-04-08T10:58:04;20.07;;;12.83;;
13743;SDS011;6943;52.368;9.966;2023-04-08T11:00:34;19.23;;;13.13;;
13743;SDS011;6943;52.368;9.966;2023-04-08T11:03:02;18.63;;;13.17;;
13743;SDS011;6943;52.368;9.966;2023-04-08T11:05:29;17.07;;;12.77;;
13743;SDS011;6943;52.368;9.966;2023-04-08T11:07:56;20.17;;;13.93;;
13743;SDS011;6943;52.368;9.966;2023-04-08T11:10:22;18.00;;;13.30;;
13743;SDS011;6943;52.368;9.966;2023-04-08T11:12:48;19.70;;;13.30;;
13743;SDS011;6943;52.368;9.966;2023-04-08T11:15:14;22.43;;;12.50;;
13743;SDS011;6943;52.368;9.966;2023-04-08T11:17:40;20.80;;;14.03;;
13743;SDS011;6943;52.368;9.966;2023-04-08T11:20:07;20.87;;;13.60;;
13743;SDS011;6943;52.368;9.966;2023-04-08T11:22:33;18.93;;;12.87;;
13743;SDS011;6943;52.368;9.966;2023-04-08T11:25:00;16.83;;;12.67;;
13743;SDS011;6943;52.368;9.966;2023-04-08T11:27:26;18.73;;;13.07;;
13743;SDS011;6943;52.368;9.966;2023-04-08T11:29:55;17.83;;;13.00;;
13743;SDS011;6943;52.368;9.966;2023-04-08T11:32:21;18.10;;;12.53;;
13743;SDS011;6943;52.368;9.966;2023-04-08T11:34:47;18.90;;;13.77;;
13743;SDS011;6943;52.368;9.966;2023-04-08T11:37:13;17.33;;;13.40;;
13743;SDS011;6943;52.368;9.966;2023-04-08T11:39:41;19.20;;;14.47;;
13743;SDS011;6943;52.368;9.966;2023-04-08T11:42:07;20.03;;;13.27;;
13743;SDS011;6943;52.368;9.966;2023-04-08T11:44:33;18.73;;;13.77;;
13743;SDS011;6943;52.368;9.966;2023-04-08T11:46:59;19.97;;;13.63;;
13743;SDS011;6943;52.368;9.966;2023-04-08T11:49:26;20.47;;;13.43;;
13743;SDS011;6943;52.368;9.966;2023-04-08T11:51:58;19.37;;;13.63;;
13743;SDS011;6943;52.368;9.966;2023-04-08T11:54:29;17.90;;;13.10;;
13743;SDS011;6943;52.368;9.966;2023-04-08T11:56:56;21.47;;;14.40;;
13743;SDS011;6943;52.368;9.966;2023-04-08T11:59:26;19.13;;;12.87;;
13743;SDS011;6943;52.368;9.966;2023-04-08T12:01:51;20.27;;;13.90;;
13743;SDS011;6943;52.368;9.966;2023-04-08T12:04:17;22.37;;;15.17;;
13743;SDS011;6943;52.368;9.966;2023-04-08T12:06:43;21.37;;;14.20;;
13743;SDS011;6943;52.368;9.966;2023-04-08T12:09:11;20.67;;;13.47;;
13743;SDS011;6943;52.368;9.966;2023-04-08T12:11:39;21.23;;;14.87;;
13743;SDS011;6943;52.368;9.966;2023-04-08T12:14:05;20.20;;;13.53;;
13743;SDS011;6943;52.368;9.966;2023-04-08T12:16:31;20.57;;;13.53;;
13743;SDS011;6943;52.368;9.966;2023-04-08T12:18:56;21.73;;;14.73;;
13743;SDS011;6943;52.368;9.966;2023-04-08T12:21:22;24.40;;;14.90;;
13743;SDS011;6943;52.368;9.966;2023-04-08T12:23:47;21.10;;;14.47;;
13743;SDS011;6943;52.368;9.966;2023-04-08T12:26:13;19.13;;;13.60;;
13743;SDS011;6943;52.368;9.966;2023-04-08T12:28:38;22.90;;;14.27;;
13743;SDS011;6943;52.368;9.966;2023-04-08T12:31:04;20.57;;;14.13;;
13743;SDS011;6943;52.368;9.966;2023-04-08T12:33:30;19.07;;;14.30;;
13743;SDS011;6943;52.368;9.966;2023-04-08T12:35:56;21.23;;;14.43;;
13743;SDS011;6943;52.368;9.966;2023-04-08T12:38:23;18.70;;;13.13;;
13743;SDS011;6943;52.368;9.966;2023-04-08T12:40:49;21.07;;;14.33;;
13743;SDS011;6943;52.368;9.966;2023-04-08T12:43:15;23.67;;;14.30;;
13743;SDS011;6943;52.368;9.966;2023-04-08T12:45:40;22.67;;;13.53;;
13743;SDS011;6943;52.368;9.966;2023-04-08T12:48:06;24.40;;;15.10;;
13743;SDS011;6943;52.368;9.966;2023-04-08T12:50:32;20.60;;;13.83;;
13743;SDS011;6943;52.368;9.966;2023-04-08T12:52:57;21.97;;;14.70;;
13743;SDS011;6943;52.368;9.966;2023-04-08T12:55:23;42.13;;;23.27;;
13743;SDS011;6943;52.368;9.966;2023-04-08T12:57:51;29.27;;;18.00;;
13743;SDS011;6943;52.368;9.966;2023-04-08T13:00:17;22.13;;;15.40;;
13743;SDS011;6943;52.368;9.966;2023-04-08T13:02:43;19.63;;;14.87;;
13743;SDS011;6943;52.368;9.966;2023-04-08T13:05:09;20.43;;;14.77;;
13743;SDS011;6943;52.368;9.966;2023-04-08T13:07:35;22.33;;;15.03;;
13743;SDS011;6943;52.368;9.966;2023-04-08T13:10:00;24.40;;;16.07;;
13743;SDS011;6943;52.368;9.966;2023-04-08T13:12:27;22.50;;;15.30;;
13743;SDS011;6943;52.368;9.966;2023-04-08T13:14:53;19.70;;;14.37;;
13743;SDS011;6943;52.368;9.966;2023-04-08T13:17:19;21.83;;;14.60;;
13743;SDS011;6943;52.368;9.966;2023-04-08T13:19:44;21.70;;;14.43;;
13743;SDS011;6943;52.368;9.966;2023-04-08T13:22:11;20.00;;;14.00;;
13743;SDS011;6943;52.368;9.966;2023-04-08T13:24:37;22.80;;;14.27;;
13743;SDS011;6943;52.368;9.966;2023-04-08T13:27:03;23.57;;;13.37;;
13743;SDS011;6943;52.368;9.966;2023-04-08T13:29:28;25.70;;;15.13;;
13743;SDS011;6943;52.368;9.966;2023-04-08T13:31:55;22.57;;;15.27;;
13743;SDS011;6943;52.368;9.966;2023-04-08T13:34:20;20.83;;;14.50;;
13743;SDS011;6943;52.368;9.966;2023-04-08T13:36:45;20.43;;;14.37;;
13743;SDS011;6943;52.368;9.966;2023-04-08T13:39:11;20.50;;;13.37;;
13743;SDS011;6943;52.368;9.966;2023-04-08T13:41:36;19.30;;;13.77;;
13743;SDS011;6943;52.368;9.966;2023-04-08T13:44:02;22.43;;;13.83;;
13743;SDS011;6943;52.368;9.966;2023-04-08T13:46:27;21.83;;;13.60;;
13743;SDS011;6943;52.368;9.966;2023-04-08T13:48:53;21.30;;;14.23;;
13743;SDS011;6943;52.368;9.966;2023-04-08T13:51:18;19.90;;;14.13;;
13743;SDS011;6943;52.368;9.966;2023-04-08T13:53:44;19.50;;;13.30;;
13743;SDS011;6943;52.368;9.966;2023-04-08T13:56:10;19.90;;;13.83;;
13743;SDS011;6943;52.368;9.966;2023-04-08T13:58:35;18.93;;;13.97;;
13743;SDS011;6943;52.368;9.966;2023-04-08T14:01:01;21.47;;;13.60;;
13743;SDS011;6943;52.368;9.966;2023-04-08T14:03:26;18.53;;;13.13;;
13743;SDS011;6943;52.368;9.966;2023-04-08T14:05:52;17.83;;;12.93;;
13743;SDS011;6943;52.368;9.966;2023-04-08T14:08:17;20.23;;;12.87;;
13743;SDS011;6943;52.368;9.966;2023-04-08T14:10:49;21.13;;;13.13;;
13743;SDS011;6943;52.368;9.966;2023-04-08T14:13:19;18.70;;;12.90;;
13743;SDS011;6943;52.368;9.966;2023-04-08T14:15:44;19.20;;;13.37;;
13743;SDS011;6943;52.368;9.966;2023-04-08T14:18:10;19.80;;;13.03;;
13743;SDS011;6943;52.368;9.966;2023-04-08T14:20:37;19.03;;;12.90;;
13743;SDS011;6943;52.368;9.966;2023-04-08T14:23:03;19.83;;;14.03;;
13743;SDS011;6943;52.368;9.966;2023-04-08T14:25:28;19.53;;;13.63;;
13743;SDS011;6943;52.368;9.966;2023-04-08T14:27:54;20.37;;;13.43;;
13743;SDS011;6943;52.368;9.966;2023-04-08T14:30:19;20.40;;;13.60;;
13743;SDS011;6943;52.368;9.966;2023-04-08T14:32:45;22.90;;;14.80;;
13743;SDS011;6943;52.368;9.966;2023-04-08T14:35:10;20.07;;;13.03;;
13743;SDS011;6943;52.368;9.966;2023-04-08T14:37:36;20.50;;;13.73;;
13743;SDS011;6943;52.368;9.966;2023-04-08T14:40:02;21.47;;;13.53;;
13743;SDS011;6943;52.368;9.966;2023-04-08T14:42:28;22.40;;;13.73;;
13743;SDS011;6943;52.368;9.966;2023-04-08T14:44:54;23.67;;;14.27;;
13743;SDS011;6943;52.368;9.966;2023-04-08T14:47:21;30.50;;;19.70;;
13743;SDS011;6943;52.368;9.966;2023-04-08T14:49:46;25.53;;;17.53;;
13743;SDS011;6943;52.368;9.966;2023-04-08T14:52:12;26.00;;;18.00;;
13743;SDS011;6943;52.368;9.966;2023-04-08T14:54:38;22.53;;;15.20;;
13743;SDS011;6943;52.368;9.966;2023-04-08T14:57:03;19.63;;;14.10;;